Time;durP1;ratioP1;P1;durP2;ratioP2;P2;SDS_P1;SDS_P2;PMS_P1;PMS_P2;Temp;Humidity;BMP_temperature;BMP_pressure;BME280_temperature;BME280_humidity;BME280_pressure;Samples;Min_cycle;Max_cycle;Signal;HPM_P1;HPM_P2
2022/03/05 00:01:01;;;;;;;17.58;9.23;;;0.10;88.00;;;;;;4948566;28;20038;-79
2022/03/05 00:03:26;;;;;;;19.48;9.63;;;0.00;87.70;;;;;;4947641;29;20343;-78
2022/03/05 00:05:52;;;;;;;15.32;8.40;;;0.00;88.20;;;;;;4948920;29;20027;-83
2022/03/05 00:08:18;;;;;;;18.55;9.75;;;0.10;88.30;;;;;;4931902;29;20027;-80
2022/03/05 00:10:44;;;;;;;19.17;9.85;;;-0.10;88.30;;;;;;4948308;29;20067;-82
2022/03/05 00:13:19;;;;;;;19.27;10.23;;;0.00;88.70;;;;;;4948124;29;20035;-81
2022/03/05 00:16:04;;;;;;;19.63;10.07;;;0.00;88.60;;;;;;4918028;29;20044;-83
2022/03/05 00:18:30;;;;;;;20.13;10.43;;;0.10;88.50;;;;;;4932301;29;20350;-81
2022/03/05 00:20:56;;;;;;;17.52;9.45;;;-0.20;88.60;;;;;;4932968;29;20171;-83
2022/03/05 00:23:23;;;;;;;18.20;9.15;;;-0.30;89.20;;;;;;4948957;29;20280;-80
2022/03/05 00:25:49;;;;;;;18.30;9.13;;;-0.30;89.70;;;;;;4933013;29;20259;-82
2022/03/05 00:28:15;;;;;;;18.23;9.55;;;-0.40;89.40;;;;;;4948802;29;20318;-81
2022/03/05 00:30:41;;;;;;;17.10;8.43;;;-0.40;90.10;;;;;;4949709;29;20103;-83
2022/03/05 00:33:07;;;;;;;16.55;8.57;;;-0.40;89.40;;;;;;4950718;29;20219;-82
2022/03/05 00:35:33;;;;;;;18.38;9.25;;;-0.30;89.40;;;;;;4952744;29;20031;-81
2022/03/05 00:38:00;;;;;;;16.60;8.95;;;-0.50;89.50;;;;;;4933052;29;20040;-81
2022/03/05 00:40:27;;;;;;;17.08;9.35;;;-0.40;89.90;;;;;;4932349;29;20024;-82
2022/03/05 00:42:53;;;;;;;15.65;8.15;;;-0.40;90.00;;;;;;4949213;29;20316;-81
2022/03/05 00:45:19;;;;;;;17.00;9.25;;;-0.50;89.70;;;;;;4947272;29;20028;-82
2022/03/05 00:47:46;;;;;;;16.25;8.15;;;-0.40;89.50;;;;;;4932388;29;20114;-82
2022/03/05 00:50:12;;;;;;;17.30;8.73;;;-0.40;89.90;;;;;;4932122;29;20019;-81
2022/03/05 00:52:38;;;;;;;18.98;8.70;;;-0.40;89.90;;;;;;4947395;29;20226;-81
2022/03/05 00:55:05;;;;;;;16.63;8.85;;;-0.40;89.40;;;;;;4947981;29;20051;-80
2022/03/05 00:57:31;;;;;;;16.25;8.93;;;-0.40;90.20;;;;;;4947603;29;20032;-79
2022/03/05 00:59:57;;;;;;;19.00;9.15;;;-0.50;90.00;;;;;;4948007;29;20043;-78
2022/03/05 01:02:23;;;;;;;15.38;8.30;;;-0.60;90.20;;;;;;4931537;29;20039;-79
2022/03/05 01:04:49;;;;;;;15.18;7.93;;;-0.60;90.50;;;;;;4932402;29;20274;-79
2022/03/05 01:07:15;;;;;;;16.00;8.55;;;-0.50;90.20;;;;;;4932475;29;20125;-82
2022/03/05 01:09:40;;;;;;;16.58;9.20;;;-0.50;90.50;;;;;;4948140;29;20032;-80
2022/03/05 01:12:07;;;;;;;16.20;8.85;;;-0.50;90.40;;;;;;4932265;29;20329;-80
2022/03/05 01:14:33;;;;;;;15.50;8.05;;;-0.70;90.60;;;;;;4949327;29;20067;-80
2022/03/05 01:16:58;;;;;;;18.35;9.38;;;-0.60;90.40;;;;;;4932441;29;20254;-78
2022/03/05 01:19:24;;;;;;;15.70;8.10;;;-0.50;90.30;;;;;;4931070;29;20262;-79
2022/03/05 01:21:50;;;;;;;17.05;8.85;;;-0.70;90.70;;;;;;4947794;29;20302;-79
2022/03/05 01:24:17;;;;;;;15.20;8.35;;;-0.50;90.60;;;;;;4931857;29;20055;-77
2022/03/05 01:26:43;;;;;;;14.80;8.00;;;-0.50;90.30;;;;;;4914223;29;20094;-79
2022/03/05 01:29:09;;;;;;;15.65;8.02;;;-0.60;90.60;;;;;;4930534;29;20222;-78
2022/03/05 01:31:35;;;;;;;15.27;7.80;;;-0.60;90.50;;;;;;4946651;29;20305;-79
2022/03/05 01:34:02;;;;;;;16.25;7.95;;;-0.60;90.50;;;;;;4931417;29;20148;-79
2022/03/05 01:36:27;;;;;;;17.73;8.80;;;-0.60;90.50;;;;;;4946927;29;20071;-78
2022/03/05 01:38:54;;;;;;;15.48;9.27;;;-0.70;90.70;;;;;;4939242;29;20083;-82
2022/03/05 01:41:20;;;;;;;15.80;8.25;;;-0.60;90.60;;;;;;4946166;29;20280;-77
2022/03/05 01:43:50;;;;;;;16.25;8.65;;;-0.70;90.70;;;;;;4930690;29;20038;-79
2022/03/05 01:46:34;;;;;;;16.67;8.63;;;-0.70;90.80;;;;;;4952094;29;20066;-78
2022/03/05 01:49:06;;;;;;;16.15;8.00;;;-0.70;90.80;;;;;;4919195;29;20078;-77
2022/03/05 01:51:33;;;;;;;16.95;8.50;;;-0.70;90.80;;;;;;4934495;29;20042;-78
2022/03/05 01:53:59;;;;;;;14.50;7.72;;;-0.90;91.10;;;;;;4932761;29;20110;-81
2022/03/05 01:56:27;;;;;;;16.63;8.77;;;-0.80;90.90;;;;;;4942333;29;20393;-81
2022/03/05 01:58:53;;;;;;;16.02;8.80;;;-0.90;91.30;;;;;;4927746;29;20043;-79
2022/03/05 02:01:26;;;;;;;16.38;8.82;;;-1.00;91.30;;;;;;4925710;29;20043;-81
2022/03/05 02:03:53;;;;;;;17.33;8.30;;;-1.00;91.40;;;;;;4895482;29;20107;-81
2022/03/05 02:06:19;;;;;;;17.35;8.23;;;-1.10;91.60;;;;;;4910487;29;20024;-79
2022/03/05 02:08:48;;;;;;;19.40;8.90;;;-1.20;91.80;;;;;;4910483;29;20125;-79
2022/03/05 02:11:19;;;;;;;15.45;8.30;;;-1.30;92.10;;;;;;4927383;29;20032;-78
2022/03/05 02:13:48;;;;;;;17.65;8.85;;;-1.10;91.50;;;;;;4894858;29;20062;-80
2022/03/05 02:16:17;;;;;;;15.40;8.73;;;-0.90;91.20;;;;;;4894608;29;20346;-80
2022/03/05 02:18:48;;;;;;;14.27;7.72;;;-0.90;90.90;;;;;;4894252;29;20056;-80
2022/03/05 02:21:20;;;;;;;16.98;8.65;;;-1.00;91.10;;;;;;4910445;29;20391;-79
2022/03/05 02:23:56;;;;;;;16.60;8.52;;;-1.20;91.50;;;;;;4894426;29;20028;-79
2022/03/05 02:26:34;;;;;;;17.05;9.05;;;-1.30;91.70;;;;;;4941344;29;20035;-80
2022/03/05 02:29:15;;;;;;;17.88;8.52;;;-1.30;91.90;;;;;;4928940;29;20031;-78
2022/03/05 02:31:47;;;;;;;17.98;8.82;;;-1.20;92.00;;;;;;4926983;29;20032;-82
2022/03/05 02:34:47;;;;;;;20.52;9.23;;;-1.10;91.70;;;;;;4913375;29;20063;-81
2022/03/05 02:37:29;;;;;;;16.67;9.75;;;-1.10;91.40;;;;;;4909815;29;20063;-81
2022/03/05 02:40:15;;;;;;;17.55;8.93;;;-1.30;92.00;;;;;;4894412;29;20074;-81
2022/03/05 02:42:42;;;;;;;15.68;8.20;;;-1.30;92.20;;;;;;4909436;29;20036;-79
2022/03/05 02:45:10;;;;;;;16.83;8.88;;;-1.30;91.90;;;;;;4926790;29;20035;-79
2022/03/05 02:47:36;;;;;;;18.17;8.77;;;-1.40;92.20;;;;;;4893717;29;20020;-80
2022/03/05 02:50:05;;;;;;;17.92;9.40;;;-1.30;92.50;;;;;;4909945;29;20191;-79
2022/03/05 02:52:31;;;;;;;17.85;9.98;;;-1.40;92.60;;;;;;4909395;29;20099;-82
2022/03/05 02:54:57;;;;;;;17.02;8.73;;;-1.40;92.50;;;;;;4926523;29;20358;-83
2022/03/05 02:57:23;;;;;;;19.13;8.75;;;-1.30;92.40;;;;;;4909534;29;20059;-81
2022/03/05 02:59:54;;;;;;;17.30;8.38;;;-1.50;92.70;;;;;;4909544;29;20047;-80
2022/03/05 03:02:20;;;;;;;18.10;8.85;;;-1.70;93.00;;;;;;4925519;29;20035;-78
2022/03/05 03:04:49;;;;;;;18.20;8.38;;;-1.60;93.20;;;;;;4926368;29;20334;-80
2022/03/05 03:07:17;;;;;;;16.40;8.27;;;-1.60;92.80;;;;;;4925773;29;20036;-79
2022/03/05 03:09:52;;;;;;;16.00;8.93;;;-1.60;92.80;;;;;;4926224;29;20024;-81
2022/03/05 03:12:23;;;;;;;16.20;7.90;;;-1.60;93.00;;;;;;4926967;29;20032;-80
2022/03/05 03:14:49;;;;;;;16.98;8.52;;;-1.50;92.60;;;;;;4926795;29;20036;-80
2022/03/05 03:17:14;;;;;;;18.20;8.88;;;-1.40;92.40;;;;;;4930057;29;20232;-79
2022/03/05 03:19:40;;;;;;;19.00;9.82;;;-1.40;92.30;;;;;;4928075;29;20031;-83
2022/03/05 03:22:06;;;;;;;19.90;9.95;;;-1.50;92.30;;;;;;4927332;29;20032;-78
2022/03/05 03:24:41;;;;;;;19.60;10.02;;;-1.50;92.80;;;;;;4930322;29;20056;-80
2022/03/05 03:27:13;;;;;;;20.17;10.18;;;-1.60;92.70;;;;;;4913951;29;20103;-81
2022/03/05 03:29:48;;;;;;;18.15;9.20;;;-1.40;92.40;;;;;;4925133;29;20031;-79
2022/03/05 03:35:51;;;;;;;20.10;9.52;;;-1.30;92.00;;;;;;4888225;29;20040;-80
2022/03/05 03:38:35;;;;;;;19.80;9.85;;;-1.50;92.40;;;;;;4847882;29;20056;-82
2022/03/05 03:41:09;;;;;;;20.52;11.23;;;-1.50;92.50;;;;;;4835046;29;20042;-81
2022/03/05 03:43:44;;;;;;;21.33;10.30;;;-1.50;92.70;;;;;;4819121;29;20332;-82
2022/03/05 03:46:12;;;;;;;19.23;9.87;;;-1.60;92.70;;;;;;4834942;29;20090;-81
2022/03/05 03:48:45;;;;;;;20.08;10.10;;;-1.60;92.70;;;;;;4834291;29;20026;-80
2022/03/05 03:51:35;;;;;;;17.95;9.65;;;-1.60;92.60;;;;;;4834235;29;20072;-81
2022/03/05 03:54:03;;;;;;;19.45;10.30;;;-1.90;93.20;;;;;;4864388;29;20045;-81
2022/03/05 03:56:44;;;;;;;17.15;9.15;;;-2.00;93.80;;;;;;4836225;29;20215;-79
2022/03/05 03:59:09;;;;;;;;;;;-2.00;93.80;;;;;;4868442;29;20033;-81
2022/03/05 04:01:55;;;;;;;20.17;9.75;;;-1.80;93.30;;;;;;4836300;29;19979;-80
2022/03/05 04:04:21;;;;;;;19.83;9.77;;;-2.00;93.70;;;;;;4834381;29;20049;-82
2022/03/05 04:09:50;;;;;;;17.77;9.57;;;-1.70;93.00;;;;;;4848850;29;20045;-81
2022/03/05 04:12:15;;;;;;;17.40;9.50;;;-1.80;93.10;;;;;;4859917;29;20045;-80
2022/03/05 04:14:54;;;;;;;19.63;9.55;;;-1.80;93.30;;;;;;4852051;29;20045;-81
2022/03/05 04:17:21;;;;;;;17.98;9.18;;;-1.80;93.00;;;;;;4852243;29;20256;-80
2022/03/05 04:19:53;;;;;;;18.77;9.43;;;-1.90;93.00;;;;;;4867237;29;20045;-79
2022/03/05 04:22:20;;;;;;;17.75;9.20;;;-1.80;93.00;;;;;;4867715;29;20034;-78
2022/03/05 04:24:55;;;;;;;19.55;10.00;;;-1.90;92.90;;;;;;4868696;29;20333;-79
2022/03/05 04:27:45;;;;;;;18.10;8.57;;;-1.90;93.00;;;;;;4867624;29;20171;-81
2022/03/05 04:30:11;;;;;;;17.95;8.90;;;-1.90;93.10;;;;;;4852383;29;20037;-78
2022/03/05 04:32:41;;;;;;;18.38;9.52;;;-1.80;92.60;;;;;;4851573;29;20045;-79
2022/03/05 04:35:08;;;;;;;20.77;10.10;;;-1.80;92.80;;;;;;4852039;29;20041;-80
2022/03/05 04:37:35;;;;;;;18.83;10.13;;;-1.80;92.80;;;;;;4854451;29;20045;-79
2022/03/05 04:40:02;;;;;;;16.27;9.15;;;-2.00;93.20;;;;;;4942627;29;20063;-78
2022/03/05 04:42:31;;;;;;;17.65;9.60;;;-1.80;92.80;;;;;;4931142;29;20024;-79
2022/03/05 04:44:58;;;;;;;17.10;9.15;;;-2.00;92.90;;;;;;4931193;29;20102;-79
2022/03/05 04:47:24;;;;;;;17.75;9.60;;;-2.10;93.30;;;;;;4916000;29;20028;-79
2022/03/05 04:49:50;;;;;;;18.92;9.80;;;-2.10;93.60;;;;;;4930264;29;20035;-80
2022/03/05 04:52:16;;;;;;;18.50;10.65;;;-2.00;93.60;;;;;;4931046;29;20106;-78
2022/03/05 04:54:42;;;;;;;19.85;9.82;;;-2.00;93.40;;;;;;4946334;29;20310;-78
2022/03/05 04:57:08;;;;;;;17.75;9.27;;;-2.10;93.70;;;;;;4946405;29;20322;-81
2022/03/05 04:59:41;;;;;;;18.25;9.50;;;-2.00;93.50;;;;;;4930203;29;20024;-78
2022/03/05 05:02:10;;;;;;;16.95;8.70;;;-2.00;93.90;;;;;;4945414;29;20034;-79
2022/03/05 05:04:50;;;;;;;19.67;10.20;;;-2.00;93.00;;;;;;4931066;29;20098;-78
2022/03/05 05:07:16;;;;;;;18.33;9.07;;;-2.00;93.10;;;;;;4929920;29;20078;-78
2022/03/05 05:09:48;;;;;;;;;;;-2.10;93.20;;;;;;4928001;29;20039;-78
2022/03/05 05:13:01;;;;;;;18.20;9.45;;;-2.20;93.90;;;;;;4947191;29;19906;-78
2022/03/05 05:15:33;;;;;;;18.50;8.82;;;-2.20;93.70;;;;;;4950676;29;20051;-78
2022/03/05 05:18:00;;;;;;;18.98;9.43;;;-2.20;93.70;;;;;;4952359;29;20044;-79
2022/03/05 05:20:30;;;;;;;20.60;9.85;;;-2.20;93.60;;;;;;4952155;29;20102;-77
2022/03/05 05:22:59;;;;;;;21.55;10.15;;;-2.10;93.80;;;;;;4948284;29;20103;-79
2022/03/05 05:25:43;;;;;;;22.17;10.00;;;-2.10;93.80;;;;;;4945709;29;20047;-80
2022/03/05 05:28:16;;;;;;;22.00;10.27;;;-2.10;93.30;;;;;;4946001;29;20050;-79
2022/03/05 05:30:57;;;;;;;17.90;9.38;;;-2.20;93.60;;;;;;4872081;29;20036;-78
2022/03/05 05:33:23;;;;;;;21.15;10.80;;;-2.20;94.20;;;;;;4872875;29;20032;-80
2022/03/05 05:36:01;;;;;;;18.30;9.15;;;-2.30;94.50;;;;;;4872096;29;20093;-79
2022/03/05 05:38:32;;;;;;;21.35;9.52;;;-2.30;94.40;;;;;;4872503;29;20272;-79
2022/03/05 05:40:57;;;;;;;18.63;9.80;;;-2.20;93.90;;;;;;4872746;29;20335;-78
2022/03/05 05:43:47;;;;;;;22.17;10.65;;;-2.30;94.30;;;;;;4872715;29;20029;-78
2022/03/05 05:46:25;;;;;;;17.13;8.95;;;-2.30;94.10;;;;;;4868323;29;20069;-79
2022/03/05 05:48:51;;;;;;;18.83;9.45;;;-2.30;93.90;;;;;;4871365;29;20036;-78
2022/03/05 05:51:35;;;;;;;23.77;10.43;;;-2.40;94.00;;;;;;4871662;29;20212;-79
2022/03/05 05:54:02;;;;;;;18.23;10.02;;;-2.40;94.80;;;;;;4871302;29;20058;-78
2022/03/05 05:56:28;;;;;;;17.95;10.25;;;-2.30;94.60;;;;;;4869128;29;20044;-81
2022/03/05 05:58:55;;;;;;;21.08;10.10;;;-2.20;94.00;;;;;;4886713;29;20073;-79
2022/03/05 06:01:23;;;;;;;22.17;10.35;;;-2.20;94.50;;;;;;4905584;29;20035;-79
2022/03/05 06:03:49;;;;;;;21.13;9.82;;;-2.30;94.40;;;;;;4929469;29;20043;-79
2022/03/05 06:06:16;;;;;;;18.02;9.88;;;-2.60;95.50;;;;;;4944471;29;20214;-79
2022/03/05 06:08:42;;;;;;;19.95;9.90;;;-2.50;95.10;;;;;;4944193;29;20036;-78
2022/03/05 06:11:08;;;;;;;17.63;9.20;;;-2.40;94.90;;;;;;4944368;29;20132;-78
2022/03/05 06:14:08;;;;;;;18.73;10.00;;;-2.30;94.60;;;;;;4928808;29;20027;-78
2022/03/05 06:16:37;;;;;;;22.65;10.52;;;-2.30;94.90;;;;;;4943719;29;20039;-79
2022/03/05 06:19:03;;;;;;;23.20;10.15;;;-2.40;95.90;;;;;;4945058;29;20035;-79
2022/03/05 06:21:28;;;;;;;22.55;10.15;;;-2.30;95.80;;;;;;4944033;29;20086;-78
2022/03/05 06:23:54;;;;;;;18.85;9.57;;;-2.20;95.40;;;;;;4944471;29;20270;-77
2022/03/05 06:26:20;;;;;;;21.30;11.02;;;-2.20;95.40;;;;;;4943724;29;20095;-77
2022/03/05 06:28:54;;;;;;;21.25;10.70;;;-2.20;95.60;;;;;;4927478;29;20046;-81
2022/03/05 06:31:52;;;;;;;18.58;9.52;;;-2.20;96.00;;;;;;4943569;29;20042;-80
2022/03/05 06:34:40;;;;;;;24.00;10.88;;;-2.10;95.70;;;;;;4943552;29;20387;-78
2022/03/05 06:37:06;;;;;;;19.83;10.38;;;-2.10;95.90;;;;;;4943773;29;20040;-78
2022/03/05 06:39:32;;;;;;;20.17;9.88;;;-2.10;95.80;;;;;;4944541;28;20103;-76
2022/03/05 06:41:57;;;;;;;20.38;10.10;;;-1.80;94.30;;;;;;4944847;29;20043;-79
2022/03/05 06:44:27;;;;;;;20.52;10.63;;;-1.70;94.00;;;;;;4928253;29;20039;-80
2022/03/05 06:46:53;;;;;;;21.13;10.50;;;-1.50;93.50;;;;;;4917446;29;20322;-81
2022/03/05 06:49:19;;;;;;;19.17;10.27;;;-1.40;93.10;;;;;;4944121;29;20274;-82
2022/03/05 06:51:46;;;;;;;19.13;10.13;;;-1.40;93.50;;;;;;4944565;29;20043;-77
2022/03/05 06:54:12;;;;;;;20.13;10.18;;;-1.40;93.60;;;;;;4943665;29;20039;-81
2022/03/05 06:56:43;;;;;;;20.58;10.95;;;-1.30;93.60;;;;;;4911710;29;20068;-78
2022/03/05 06:59:09;;;;;;;21.08;9.88;;;-1.30;93.90;;;;;;4942771;29;20023;-79
2022/03/05 07:01:35;;;;;;;21.70;11.38;;;-1.30;93.60;;;;;;4942653;29;20091;-78
2022/03/05 07:04:01;;;;;;;19.38;10.30;;;-1.20;93.50;;;;;;4911625;29;20059;-77
2022/03/05 07:06:27;;;;;;;19.85;10.70;;;-1.20;93.50;;;;;;4943472;29;20087;-78
2022/03/05 07:08:59;;;;;;;25.35;11.48;;;-1.20;93.40;;;;;;4927182;29;20035;-78
2022/03/05 07:11:33;;;;;;;21.40;10.23;;;-1.10;93.40;;;;;;4939794;29;20035;-78
2022/03/05 07:13:59;;;;;;;22.77;11.32;;;-1.00;93.50;;;;;;4937134;29;20030;-79
2022/03/05 07:16:41;;;;;;;20.60;10.45;;;-0.90;93.40;;;;;;4926207;29;20044;-78
2022/03/05 07:19:07;;;;;;;19.00;10.35;;;-0.80;92.80;;;;;;4925542;29;20075;-77
2022/03/05 07:21:34;;;;;;;24.02;10.65;;;-0.60;92.60;;;;;;4925995;29;20040;-79
2022/03/05 07:23:59;;;;;;;21.67;10.90;;;-0.40;91.90;;;;;;4943186;29;20019;-79
2022/03/05 07:26:26;;;;;;;19.67;10.32;;;-0.30;92.00;;;;;;4941926;29;20027;-79
2022/03/05 07:28:52;;;;;;;21.15;10.25;;;-0.20;92.00;;;;;;4941769;29;20028;-78
2022/03/05 07:31:18;;;;;;;19.50;9.52;;;-0.10;91.60;;;;;;4941949;29;20152;-79
2022/03/05 07:33:44;;;;;;;22.35;10.70;;;0.10;91.50;;;;;;4925396;29;20083;-80
2022/03/05 07:36:10;;;;;;;21.17;10.85;;;0.20;91.10;;;;;;4925955;29;20035;-82
2022/03/05 07:38:44;;;;;;;20.63;10.40;;;0.40;90.80;;;;;;4943090;29;20036;-82
2022/03/05 07:41:11;;;;;;;21.30;12.00;;;0.50;90.70;;;;;;4942605;29;20020;-79
2022/03/05 07:43:40;;;;;;;21.30;10.82;;;0.60;90.70;;;;;;4926455;29;20031;-79
2022/03/05 07:46:07;;;;;;;23.70;10.93;;;0.70;90.30;;;;;;4900380;29;20055;-79
2022/03/05 07:48:33;;;;;;;23.65;11.23;;;0.80;90.00;;;;;;4887402;29;20044;-79
2022/03/05 07:54:58;;;;;;;21.95;10.93;;;1.10;89.10;;;;;;4885890;29;20334;-80
2022/03/05 07:57:24;;;;;;;20.10;11.10;;;1.30;88.10;;;;;;4886401;29;20037;-82
2022/03/05 07:59:59;;;;;;;23.05;11.35;;;1.40;87.60;;;;;;4885791;29;20120;-78
2022/03/05 08:02:25;;;;;;;19.55;10.65;;;1.60;87.30;;;;;;4889185;29;20045;-78
2022/03/05 08:04:50;;;;;;;21.73;11.23;;;1.80;86.60;;;;;;4899588;29;20080;-80
2022/03/05 08:07:48;;;;;;;20.88;11.15;;;1.90;84.60;;;;;;4904383;29;20096;-80
2022/03/05 08:10:24;;;;;;;25.15;12.15;;;2.00;84.70;;;;;;4879055;29;20255;-79
2022/03/05 08:12:49;;;;;;;25.02;11.10;;;2.10;85.10;;;;;;4908219;29;20126;-81
2022/03/05 08:15:18;;;;;;;20.58;11.45;;;2.20;84.50;;;;;;4908593;29;20041;-80
2022/03/05 08:17:54;;;;;;;;;;;2.40;83.40;;;;;;4938431;29;20039;-80
2022/03/05 08:20:25;;;;;;;23.52;11.57;;;2.40;84.20;;;;;;4947717;29;20005;-80
2022/03/05 08:22:51;;;;;;;23.55;12.10;;;2.50;83.30;;;;;;4930672;29;20027;-78
2022/03/05 08:25:18;;;;;;;26.65;13.70;;;2.60;82.40;;;;;;4931259;29;20027;-79
2022/03/05 08:27:44;;;;;;;25.20;13.30;;;2.70;82.20;;;;;;4947296;29;20032;-78
2022/03/05 08:30:11;;;;;;;25.50;13.18;;;2.70;81.70;;;;;;4945954;29;20054;-79
2022/03/05 08:32:37;;;;;;;23.98;12.82;;;2.90;81.40;;;;;;4946554;29;20110;-80
2022/03/05 08:35:04;;;;;;;25.77;13.68;;;3.00;81.50;;;;;;4946902;29;20120;-80
2022/03/05 08:37:30;;;;;;;22.52;12.52;;;3.00;81.20;;;;;;4947381;29;20263;-81
2022/03/05 08:39:56;;;;;;;23.92;13.25;;;3.00;81.30;;;;;;4945333;29;20262;-78
2022/03/05 08:42:22;;;;;;;25.88;13.05;;;3.20;81.20;;;;;;4946134;29;20046;-79
2022/03/05 08:44:48;;;;;;;23.67;13.05;;;3.30;80.90;;;;;;4930162;29;20028;-78
2022/03/05 08:47:14;;;;;;;22.60;12.45;;;3.40;80.80;;;;;;4907832;29;20347;-79
2022/03/05 08:49:39;;;;;;;26.38;12.63;;;3.50;80.40;;;;;;4955850;29;20038;-77
2022/03/05 08:52:09;;;;;;;25.70;13.20;;;3.60;80.00;;;;;;4955504;29;20330;-79
2022/03/05 08:55:08;;;;;;;23.25;12.30;;;3.70;80.40;;;;;;4934065;29;20285;-81
2022/03/05 08:57:34;;;;;;;24.88;12.00;;;3.90;80.00;;;;;;4911635;29;20226;-81
2022/03/05 09:00:00;;;;;;;23.63;13.32;;;4.00;79.00;;;;;;4926556;29;20039;-79
2022/03/05 09:02:26;;;;;;;22.25;12.32;;;4.10;79.20;;;;;;4925983;29;20055;-79
2022/03/05 09:04:52;;;;;;;26.90;13.27;;;4.10;78.80;;;;;;4927212;29;20099;-82
2022/03/05 09:07:19;;;;;;;22.75;12.25;;;4.30;78.90;;;;;;4926827;29;20067;-77
2022/03/05 09:09:45;;;;;;;24.73;11.65;;;4.30;78.50;;;;;;4929821;29;20028;-82
2022/03/05 09:12:10;;;;;;;21.90;11.60;;;4.50;78.20;;;;;;4958805;29;20109;-78
2022/03/05 09:14:36;;;;;;;23.13;11.20;;;4.60;77.90;;;;;;4939348;29;20031;-80
2022/03/05 09:17:04;;;;;;;22.85;11.93;;;4.70;77.70;;;;;;4945656;29;20059;-80
2022/03/05 09:19:30;;;;;;;20.58;10.63;;;4.90;77.40;;;;;;4946346;29;20027;-81
2022/03/05 09:21:59;;;;;;;20.20;10.52;;;5.00;75.10;;;;;;4929344;29;20051;-77
2022/03/05 09:24:24;;;;;;;17.20;9.65;;;5.10;74.50;;;;;;4946670;29;20034;-78
2022/03/05 09:26:50;;;;;;;19.77;10.45;;;5.20;73.60;;;;;;4929227;29;20036;-78
2022/03/05 09:29:16;;;;;;;22.38;10.68;;;5.30;74.10;;;;;;4945463;29;20043;-80
2022/03/05 09:31:42;;;;;;;23.77;11.30;;;5.30;74.30;;;;;;4929404;29;20050;-80
2022/03/05 09:34:11;;;;;;;18.55;10.13;;;5.20;75.00;;;;;;4946367;29;20028;-80
2022/03/05 09:40:12;;;;;;;17.67;9.32;;;5.20;71.50;;;;;;4946519;29;20049;-78
2022/03/05 09:42:43;;;;;;;17.30;10.00;;;5.20;71.50;;;;;;4946656;29;20023;-80
2022/03/05 09:45:10;;;;;;;19.27;10.70;;;5.30;73.00;;;;;;4944154;29;20031;-80
2022/03/05 09:47:41;;;;;;;17.10;9.93;;;5.40;74.00;;;;;;4945266;29;20318;-79
2022/03/05 09:50:08;;;;;;;18.48;10.85;;;5.60;73.00;;;;;;4944895;29;20031;-79
2022/03/05 09:52:34;;;;;;;20.13;11.15;;;5.70;72.60;;;;;;4946462;29;20094;-82
2022/03/05 09:55:01;;;;;;;18.67;10.43;;;5.70;73.20;;;;;;4944828;29;20055;-79
2022/03/05 09:57:27;;;;;;;18.75;10.50;;;5.70;73.40;;;;;;4943830;29;20062;-79
2022/03/05 09:59:53;;;;;;;20.38;10.95;;;5.80;72.50;;;;;;4900339;29;20029;-78
2022/03/05 10:02:19;;;;;;;20.55;11.38;;;5.70;72.60;;;;;;4944556;29;20083;-79
2022/03/05 10:04:45;;;;;;;20.38;10.20;;;5.70;72.80;;;;;;4928933;29;20222;-78
2022/03/05 10:07:15;;;;;;;18.42;10.05;;;5.70;71.60;;;;;;4946317;29;20035;-77
2022/03/05 10:09:46;;;;;;;18.17;10.00;;;5.80;71.40;;;;;;4946437;29;20086;-80
2022/03/05 10:12:45;;;;;;;20.98;10.77;;;5.90;71.00;;;;;;4929312;29;20162;-78
2022/03/05 10:15:12;;;;;;;17.50;10.02;;;5.90;71.40;;;;;;4903401;29;20041;-78
2022/03/05 10:17:55;;;;;;;21.83;11.05;;;5.90;71.40;;;;;;4906583;29;20047;-79
2022/03/05 10:20:30;;;;;;;15.82;9.77;;;6.10;71.30;;;;;;4906749;29;20079;-79
2022/03/05 10:23:15;;;;;;;19.92;10.00;;;6.00;70.30;;;;;;4922271;29;20032;-79
2022/03/05 10:25:55;;;;;;;16.98;9.73;;;6.20;69.80;;;;;;4906696;29;20040;-80
2022/03/05 10:28:23;;;;;;;18.45;10.77;;;6.40;69.70;;;;;;4906311;29;20092;-79
2022/03/05 10:31:02;;;;;;;19.73;10.65;;;6.70;70.10;;;;;;4905968;29;20208;-79
2022/03/05 10:33:35;;;;;;;16.75;9.63;;;6.90;68.30;;;;;;4906820;29;20096;-80
2022/03/05 10:36:16;;;;;;;17.73;9.73;;;7.00;67.80;;;;;;4906012;29;20048;-79
2022/03/05 10:42:24;;;;;;;16.67;8.77;;;7.00;66.50;;;;;;4869778;29;20046;-81
2022/03/05 10:45:07;;;;;;;16.77;9.73;;;7.10;67.00;;;;;;4853855;29;20037;-80
2022/03/05 10:47:43;;;;;;;14.30;9.05;;;7.20;65.90;;;;;;4858336;29;20041;-80
2022/03/05 10:50:15;;;;;;;15.38;8.65;;;7.30;65.20;;;;;;4857470;29;20044;-79
2022/03/05 10:52:52;;;;;;;13.88;8.25;;;7.50;64.90;;;;;;4886999;29;20049;-81
2022/03/05 10:55:23;;;;;;;16.05;8.88;;;7.70;63.80;;;;;;4887152;29;20033;-80
2022/03/05 10:58:13;;;;;;;13.63;7.85;;;7.70;64.10;;;;;;4886697;29;20047;-79
2022/03/05 11:00:42;;;;;;;14.90;8.23;;;8.00;63.20;;;;;;4886850;29;20084;-79
2022/03/05 11:03:08;;;;;;;15.07;8.50;;;8.80;62.70;;;;;;4886442;29;20324;-79
2022/03/05 11:05:35;;;;;;;15.40;8.55;;;9.20;60.70;;;;;;4887249;29;20033;-80
2022/03/05 11:08:01;;;;;;;14.43;8.35;;;9.30;60.00;;;;;;4871091;29;20038;-79
2022/03/05 11:10:29;;;;;;;14.07;7.90;;;9.20;60.00;;;;;;4872035;29;20037;-81
2022/03/05 11:13:02;;;;;;;14.93;8.98;;;8.80;59.40;;;;;;4871069;29;20033;-79
2022/03/05 11:15:32;;;;;;;14.30;7.97;;;8.40;60.20;;;;;;4886157;29;20052;-79
2022/03/05 11:18:04;;;;;;;15.52;7.40;;;8.60;61.30;;;;;;4881175;29;20044;-80
2022/03/05 11:20:30;;;;;;;15.02;8.32;;;9.10;61.00;;;;;;4945535;29;20036;-81
2022/03/05 11:22:56;;;;;;;14.55;7.90;;;9.30;59.80;;;;;;4943959;29;20087;-79
2022/03/05 11:25:25;;;;;;;12.20;7.72;;;9.80;59.20;;;;;;4945426;29;20027;-83
2022/03/05 11:28:08;;;;;;;14.27;7.80;;;10.90;57.40;;;;;;4944993;29;20100;-81
2022/03/05 11:30:43;;;;;;;12.68;7.43;;;10.90;56.20;;;;;;4944463;29;20136;-81
2022/03/05 11:33:23;;;;;;;12.77;7.90;;;11.00;55.50;;;;;;4945526;29;20023;-82
2022/03/05 11:35:49;;;;;;;13.80;7.65;;;11.40;54.70;;;;;;4945114;29;20032;-80
2022/03/05 11:38:35;;;;;;;11.40;6.80;;;11.20;55.20;;;;;;4944827;29;20099;-79
2022/03/05 11:41:21;;;;;;;10.52;7.03;;;11.60;55.10;;;;;;4947114;29;20035;-79
2022/03/05 11:43:48;;;;;;;14.23;7.82;;;12.60;55.60;;;;;;4956120;29;20028;-77
2022/03/05 11:46:25;;;;;;;10.95;6.90;;;13.60;51.10;;;;;;4942069;29;20059;-80
2022/03/05 11:49:08;;;;;;;11.13;6.78;;;14.70;49.60;;;;;;4945268;29;20035;-83
2022/03/05 11:51:55;;;;;;;10.10;7.35;;;15.70;49.10;;;;;;4962101;29;20047;-77
2022/03/05 11:54:22;;;;;;;9.63;6.40;;;15.20;48.20;;;;;;4958598;29;20031;-76
2022/03/05 11:57:10;;;;;;;9.15;6.53;;;15.30;48.00;;;;;;4957200;29;20032;-82
2022/03/05 11:59:38;;;;;;;10.38;6.60;;;15.20;47.50;;;;;;4951175;29;20032;-80
2022/03/05 12:02:04;;;;;;;11.02;6.88;;;14.70;48.50;;;;;;4949538;29;20036;-79
2022/03/05 12:04:31;;;;;;;10.30;6.88;;;15.10;48.40;;;;;;4949958;29;20024;-78
2022/03/05 12:07:14;;;;;;;10.10;6.53;;;15.00;48.20;;;;;;4934486;29;20043;-79
2022/03/05 12:09:45;;;;;;;11.52;6.57;;;15.10;48.00;;;;;;4949590;29;20023;-77
2022/03/05 12:12:16;;;;;;;9.88;7.07;;;16.00;46.70;;;;;;4951291;29;20119;-80
2022/03/05 12:15:01;;;;;;;9.15;6.72;;;17.00;45.10;;;;;;4948101;29;20309;-82
2022/03/05 12:17:39;;;;;;;7.93;5.70;;;18.00;44.20;;;;;;4931896;29;20039;-83
2022/03/05 12:20:14;;;;;;;10.10;6.35;;;19.60;44.10;;;;;;4948322;29;20047;-80
2022/03/05 12:22:55;;;;;;;8.63;6.20;;;20.30;42.60;;;;;;4948418;29;20031;-80
2022/03/05 12:25:22;;;;;;;8.43;5.60;;;19.90;40.90;;;;;;4948426;29;20043;-79
2022/03/05 12:27:51;;;;;;;8.68;6.20;;;20.00;41.00;;;;;;4950882;29;20051;-80
2022/03/05 12:30:22;;;;;;;7.82;5.30;;;20.20;42.30;;;;;;4952942;29;20307;-78
2022/03/05 12:32:48;;;;;;;7.57;5.65;;;21.70;40.60;;;;;;4944028;28;20055;-80
2022/03/05 12:35:17;;;;;;;9.27;5.95;;;22.30;39.40;;;;;;4960718;28;20039;-81
2022/03/05 12:37:43;;;;;;;7.57;6.20;;;23.00;38.60;;;;;;4941577;29;20270;-80
2022/03/05 12:40:11;;;;;;;7.90;6.22;;;22.50;38.60;;;;;;4947972;29;20056;-80
2022/03/05 12:42:42;;;;;;;9.73;6.27;;;22.30;40.20;;;;;;4948134;29;20040;-82
2022/03/05 12:45:15;;;;;;;7.85;6.13;;;21.20;39.00;;;;;;4946057;29;20038;-83
2022/03/05 12:47:41;;;;;;;7.97;6.07;;;20.90;39.10;;;;;;4931322;29;20064;-80
2022/03/05 12:50:21;;;;;;;8.25;6.35;;;20.70;39.50;;;;;;4937362;29;20290;-83
2022/03/05 12:53:00;;;;;;;8.00;6.05;;;19.10;42.00;;;;;;4928270;29;20028;-80
2022/03/05 12:55:28;;;;;;;7.65;5.57;;;19.80;42.20;;;;;;4912342;29;20040;-81
2022/03/05 12:57:57;;;;;;;8.18;5.85;;;21.20;42.00;;;;;;4926077;29;20055;-81
2022/03/05 13:00:23;;;;;;;7.10;5.40;;;23.10;40.10;;;;;;4926813;29;20036;-79
2022/03/05 13:02:52;;;;;;;8.00;6.10;;;23.90;39.40;;;;;;4927661;29;20043;-81
2022/03/05 13:05:17;;;;;;;8.40;6.25;;;24.10;36.90;;;;;;4927712;29;20303;-84
2022/03/05 13:07:44;;;;;;;7.53;5.60;;;22.00;37.90;;;;;;4928477;29;20036;-81
2022/03/05 13:10:11;;;;;;;7.80;5.72;;;21.80;37.70;;;;;;4911800;29;20184;-81
2022/03/05 13:12:41;;;;;;;6.90;5.38;;;21.60;37.70;;;;;;4911528;29;20036;-81